createdAt,value
2019-06-01T06:50:56.156Z,20.90
2019-06-01T06:53:00.446Z,20.90
2019-06-01T06:55:05.496Z,21.10
2019-06-01T06:57:09.747Z,21.10
2019-06-01T06:59:14.024Z,21.20
2019-06-01T07:01:18.718Z,21.20
2019-06-01T07:03:23.169Z,21.20
2019-06-01T07:05:29.479Z,21.40
2019-06-01T07:07:33.562Z,21.50
2019-06-01T07:09:37.875Z,21.70
2019-06-01T07:11:42.150Z,21.80
2019-06-01T07:13:46.375Z,21.90
2019-06-01T07:15:50.721Z,22.10
2019-06-01T07:17:55.072Z,22.20
2019-06-01T07:19:59.452Z,22.40
2019-06-01T07:22:03.737Z,22.60
2019-06-01T07:24:08.073Z,22.80
2019-06-01T07:26:12.357Z,22.80
2019-06-01T07:28:16.621Z,22.90
2019-06-01T07:30:22.216Z,22.90
2019-06-01T07:32:26.698Z,22.90
2019-06-01T07:34:41.180Z,22.90
2019-06-01T07:36:37.050Z,23.10
2019-06-01T07:38:41.359Z,23.30
2019-06-01T07:40:45.593Z,23.30
2019-06-01T07:42:49.913Z,23.40
2019-06-01T07:44:54.242Z,23.40
2019-06-01T07:46:58.467Z,23.60
2019-06-01T07:49:02.677Z,23.60
2019-06-01T07:51:06.888Z,23.80
2019-06-01T07:53:11.122Z,23.90
2019-06-01T07:55:15.550Z,23.90
2019-06-01T07:57:19.894Z,23.80
2019-06-01T07:59:24.876Z,23.60
2019-06-01T08:01:31.409Z,23.70
2019-06-01T08:03:36.227Z,23.80
2019-06-01T08:05:40.532Z,23.80
2019-06-01T08:07:44.849Z,23.80
2019-06-01T08:09:49.206Z,23.80
2019-06-01T08:11:53.431Z,24.00
2019-06-01T08:13:58.253Z,23.90
2019-06-01T08:16:02.621Z,23.80
2019-06-01T08:18:06.924Z,23.90
2019-06-01T08:20:11.343Z,24.20
2019-06-01T08:22:15.673Z,24.10
2019-06-01T08:24:20.013Z,24.10
2019-06-01T08:26:24.457Z,24.20
2019-06-01T08:28:29.088Z,24.40
2019-06-01T08:30:33.410Z,24.70
2019-06-01T08:32:37.734Z,24.60
2019-06-01T08:34:42.119Z,24.60
2019-06-01T08:36:46.335Z,24.60
2019-06-01T08:38:50.538Z,24.80
2019-06-01T08:40:54.804Z,24.70
2019-06-01T08:42:59.106Z,24.60
2019-06-01T08:45:03.430Z,24.90
2019-06-01T08:47:09.622Z,25.00
2019-06-01T08:49:13.940Z,25.20
2019-06-01T08:51:18.175Z,25.10
2019-06-01T08:53:23.755Z,25.00
2019-06-01T08:55:28.113Z,25.10
2019-06-01T08:57:32.529Z,24.80
2019-06-01T08:59:36.843Z,25.00
2019-06-01T09:01:41.067Z,24.90
2019-06-01T09:03:46.740Z,24.90
2019-06-01T09:05:51.334Z,25.20
2019-06-01T09:07:55.661Z,25.40
2019-06-01T09:09:59.982Z,25.80
2019-06-01T09:12:04.534Z,25.80
2019-06-01T09:14:08.788Z,25.70
2019-06-01T09:16:13.003Z,25.50
2019-06-01T09:18:17.237Z,25.40
2019-06-01T09:20:21.546Z,25.70
2019-06-01T09:22:25.855Z,25.80
2019-06-01T09:24:30.226Z,25.60
2019-06-01T09:26:34.492Z,25.70
2019-06-01T09:28:38.974Z,25.80
2019-06-01T09:30:43.275Z,26.00
2019-06-01T09:32:47.500Z,26.10
2019-06-01T09:34:51.736Z,26.20
2019-06-01T09:36:55.957Z,26.20
2019-06-01T09:39:00.260Z,26.20
2019-06-01T09:41:04.502Z,26.40
2019-06-01T09:43:08.726Z,26.50
2019-06-01T09:45:13.080Z,26.60
2019-06-01T09:47:17.370Z,26.80
2019-06-01T09:49:21.706Z,26.70
2019-06-01T09:51:27.274Z,26.80
2019-06-01T09:53:34.354Z,26.60
2019-06-01T09:55:38.930Z,26.50
2019-06-01T09:57:43.443Z,26.40
2019-06-01T09:59:47.737Z,26.50
2019-06-01T10:01:52.048Z,26.70
2019-06-01T10:03:56.357Z,26.80
2019-06-01T10:06:02.263Z,26.70
2019-06-01T10:08:06.631Z,26.60
2019-06-01T10:10:11.369Z,26.30
2019-06-01T10:12:15.747Z,26.50
2019-06-01T10:14:20.097Z,26.80
2019-06-01T10:16:24.412Z,27.10
2019-06-01T10:18:28.784Z,27.20
2019-06-01T10:20:34.595Z,27.00
2019-06-01T10:22:41.589Z,26.90
2019-06-01T10:24:46.066Z,26.90
2019-06-01T10:26:50.702Z,26.90
2019-06-01T10:28:55.024Z,27.00
2019-06-01T10:30:59.704Z,26.90
2019-06-01T10:33:04.021Z,27.30
2019-06-01T10:35:09.067Z,27.60
2019-06-01T10:37:13.450Z,27.70
2019-06-01T10:39:19.713Z,27.90
2019-06-01T10:41:23.788Z,28.00
2019-06-01T10:43:28.225Z,27.90
2019-06-01T10:45:33.531Z,27.80
2019-06-01T10:47:38.414Z,28.00
2019-06-01T10:49:42.802Z,28.20
2019-06-01T10:51:47.059Z,28.20
2019-06-01T10:53:51.365Z,28.20
2019-06-01T10:55:55.767Z,28.30
2019-06-01T10:58:00.215Z,28.30
2019-06-01T11:00:06.270Z,28.20
2019-06-01T11:02:10.769Z,27.50
2019-06-01T11:04:15.128Z,27.60
2019-06-01T11:06:33.924Z,27.90
2019-06-01T11:08:25.513Z,28.10
2019-06-01T11:10:29.756Z,28.10
2019-06-01T11:12:34.940Z,28.10
2019-06-01T11:14:39.340Z,28.20
2019-06-01T11:16:44.088Z,28.10
2019-06-01T11:18:48.598Z,27.80
2019-06-01T11:20:52.877Z,27.30
2019-06-01T11:22:57.099Z,26.90
2019-06-01T11:25:01.411Z,26.90
2019-06-01T11:27:05.836Z,27.10
2019-06-01T11:29:10.215Z,27.50
2019-06-01T11:31:14.424Z,27.70
2019-06-01T11:33:18.796Z,27.40
2019-06-01T11:35:23.133Z,27.60
2019-06-01T11:37:27.455Z,27.80
2019-06-01T11:39:31.658Z,28.00
2019-06-01T11:41:36.397Z,28.10
2019-06-01T11:43:40.827Z,28.30
2019-06-01T11:45:45.305Z,28.60
2019-06-01T11:47:49.794Z,28.70
2019-06-01T11:49:54.115Z,28.90
2019-06-01T11:51:58.423Z,28.90
2019-06-01T11:54:02.725Z,28.90
2019-06-01T11:56:07.022Z,28.70
2019-06-01T11:58:11.428Z,28.70
2019-06-01T12:00:17.787Z,28.80
2019-06-01T12:02:22.090Z,28.70
2019-06-01T12:04:46.388Z,28.50
2019-06-01T12:06:51.444Z,28.60
2019-06-01T12:08:55.663Z,28.60
2019-06-01T12:10:59.975Z,28.50
2019-06-01T12:15:08.223Z,28.30
2019-06-01T12:17:12.725Z,28.40
2019-06-01T12:19:16.998Z,28.30
2019-06-01T12:21:21.231Z,28.40
2019-06-01T12:23:25.557Z,28.20
2019-06-01T12:25:30.003Z,28.30
2019-06-01T12:27:34.456Z,28.40
2019-06-01T12:29:39.476Z,28.40
2019-06-01T12:31:43.871Z,28.60
2019-06-01T12:33:48.808Z,28.70
2019-06-01T12:35:53.221Z,28.80
2019-06-01T12:38:06.017Z,28.70
2019-06-01T12:40:07.479Z,28.70
2019-06-01T12:42:17.811Z,28.70
2019-06-01T12:44:22.041Z,28.90
2019-06-01T12:46:26.339Z,29.00
2019-06-01T12:48:30.589Z,29.00
2019-06-01T12:50:34.878Z,29.20
2019-06-01T12:52:40.281Z,29.20
2019-06-01T12:54:44.819Z,28.90
2019-06-01T12:56:49.802Z,28.80
2019-06-01T12:58:54.360Z,28.90
2019-06-01T13:01:02.648Z,28.50
2019-06-01T13:03:07.866Z,28.40
2019-06-01T13:05:11.388Z,28.40
2019-06-01T13:07:15.669Z,28.50
2019-06-01T13:09:19.937Z,28.70
2019-06-01T13:11:24.143Z,28.90
2019-06-01T13:13:28.319Z,29.00
2019-06-01T13:15:32.510Z,29.10
2019-06-01T13:17:36.739Z,29.10
2019-06-01T13:19:41.332Z,29.00
2019-06-01T13:21:45.673Z,29.10
2019-06-01T13:23:49.839Z,29.10
2019-06-01T13:25:54.109Z,29.20
2019-06-01T13:27:58.261Z,29.40
2019-06-01T13:30:02.461Z,29.50
2019-06-01T13:32:06.740Z,29.40
2019-06-01T13:34:11.018Z,29.50
2019-06-01T13:36:15.224Z,29.40
2019-06-01T13:38:19.781Z,29.40
2019-06-01T13:40:23.948Z,29.40
2019-06-01T13:42:28.222Z,29.30
2019-06-01T13:44:32.485Z,29.40
2019-06-01T13:46:36.757Z,29.40
2019-06-01T13:48:41.536Z,29.40
2019-06-01T13:50:45.725Z,29.40
2019-06-01T13:52:50.091Z,29.40
2019-06-01T13:54:54.735Z,29.40
2019-06-01T13:56:59.045Z,29.60
2019-06-01T13:59:03.384Z,29.60
2019-06-01T14:01:07.838Z,29.60
2019-06-01T14:03:12.039Z,29.60
2019-06-01T14:05:16.241Z,29.60
2019-06-01T14:07:20.405Z,29.40
2019-06-01T14:09:24.614Z,29.10
2019-06-01T14:11:28.806Z,29.10
2019-06-01T14:13:33.033Z,29.30
2019-06-01T14:15:37.219Z,29.50
2019-06-01T14:17:42.965Z,29.60
2019-06-01T14:19:47.560Z,29.80
2019-06-01T14:21:52.294Z,29.60
2019-06-01T14:23:56.715Z,29.80
2019-06-01T14:26:18.997Z,29.90
2019-06-01T14:28:23.427Z,29.90
2019-06-01T14:30:27.681Z,30.00
2019-06-01T14:32:31.835Z,30.20
2019-06-01T14:34:36.072Z,30.30
2019-06-01T14:36:40.688Z,30.50
2019-06-01T14:38:52.873Z,30.80
2019-06-01T14:40:55.213Z,31.00
2019-06-01T14:42:59.563Z,31.40
2019-06-01T14:45:05.336Z,31.10
2019-06-01T14:47:10.107Z,31.40
2019-06-01T14:49:14.261Z,31.50
2019-06-01T14:51:18.570Z,31.40
2019-06-01T14:53:22.784Z,31.40
2019-06-01T14:55:26.948Z,31.30
2019-06-01T14:57:31.247Z,31.30
2019-06-01T14:59:35.472Z,31.60
2019-06-01T15:01:39.632Z,31.40
2019-06-01T15:03:43.877Z,31.30
2019-06-01T15:05:48.190Z,31.10
2019-06-01T15:07:52.478Z,31.10
2019-06-01T15:09:56.689Z,31.00
2019-06-01T15:12:00.891Z,30.80
2019-06-01T15:14:05.455Z,30.60
2019-06-01T15:16:09.651Z,30.50
2019-06-01T15:18:13.798Z,30.40
2019-06-01T15:20:18.272Z,30.30
2019-06-01T15:22:22.515Z,30.10
2019-06-01T15:24:26.703Z,29.90
2019-06-01T15:26:30.916Z,29.60
2019-06-01T15:28:35.078Z,29.50
2019-06-01T15:30:39.285Z,29.40
2019-06-01T15:32:43.531Z,29.20
2019-06-01T15:34:47.689Z,29.00
2019-06-01T15:36:51.874Z,28.80
2019-06-01T15:38:56.039Z,28.80
2019-06-01T15:41:00.582Z,28.60
2019-06-01T15:43:04.977Z,28.60
2019-06-01T15:45:10.753Z,28.70
2019-06-01T15:47:16.999Z,28.60
2019-06-01T15:49:21.192Z,28.60
2019-06-01T15:51:25.346Z,28.30
2019-06-01T15:53:29.531Z,28.20
2019-06-01T15:55:33.695Z,28.30
2019-06-01T15:57:37.863Z,28.10
2019-06-01T15:59:42.052Z,28.20
2019-06-01T16:01:46.247Z,28.10
2019-06-01T16:03:50.668Z,28.10
2019-06-01T16:05:55.040Z,28.20
2019-06-01T16:07:59.461Z,28.00
2019-06-01T16:10:07.550Z,28.00
2019-06-01T16:12:09.594Z,28.00
2019-06-01T16:14:13.858Z,28.00
2019-06-01T16:16:18.062Z,28.10
2019-06-01T16:18:22.248Z,28.00
2019-06-01T16:20:26.414Z,27.90
2019-06-01T16:22:30.638Z,27.90
2019-06-01T16:24:34.884Z,28.00
2019-06-01T16:26:39.078Z,28.00
2019-06-01T16:28:43.261Z,28.00
2019-06-01T16:30:47.410Z,28.00
2019-06-01T16:32:51.590Z,28.00
2019-06-01T16:34:56.863Z,27.90
2019-06-01T16:37:01.567Z,27.80
2019-06-01T16:39:09.970Z,27.80
2019-06-01T16:41:14.150Z,27.70
2019-06-01T16:43:18.330Z,27.60
2019-06-01T16:45:22.487Z,27.60
2019-06-01T16:47:26.671Z,27.50
2019-06-01T16:49:30.880Z,27.50
2019-06-01T16:51:56.599Z,27.50
2019-06-01T16:54:01.837Z,27.40
2019-06-01T16:56:06.465Z,27.30
2019-06-01T16:58:10.664Z,27.30
2019-06-01T17:00:16.096Z,27.20
2019-06-01T17:02:20.269Z,27.10
2019-06-01T17:04:24.754Z,27.10
2019-06-01T17:06:29.192Z,27.10
2019-06-01T17:08:33.398Z,27.00
2019-06-01T17:10:42.637Z,27.00
2019-06-01T17:12:46.600Z,26.90
2019-06-01T17:14:50.818Z,26.90
2019-06-01T17:16:55.022Z,26.90
2019-06-01T17:18:59.190Z,26.90
2019-06-01T17:21:03.577Z,26.80
2019-06-01T17:23:24.249Z,26.80
2019-06-01T17:25:16.258Z,26.70
2019-06-01T17:27:20.562Z,26.70
2019-06-01T17:29:24.730Z,26.60
2019-06-01T17:31:28.929Z,26.40
2019-06-01T17:33:33.091Z,26.40
2019-06-01T17:35:37.488Z,26.50
2019-06-01T17:37:41.680Z,26.50
2019-06-01T17:39:45.843Z,26.40
2019-06-01T17:41:50.110Z,26.40
2019-06-01T17:43:54.260Z,26.40
2019-06-01T17:45:58.474Z,26.40
2019-06-01T17:48:18.200Z,26.40
2019-06-01T17:50:11.752Z,26.40
2019-06-01T17:52:16.103Z,26.40
2019-06-01T17:54:20.352Z,26.40
2019-06-01T17:56:24.667Z,26.40
2019-06-01T17:58:28.945Z,26.30
2019-06-01T18:00:33.284Z,26.30
2019-06-01T18:02:37.497Z,26.30
2019-06-01T18:04:41.762Z,26.20
2019-06-01T18:06:46.007Z,26.10
2019-06-01T18:08:50.269Z,26.10
2019-06-01T18:10:55.200Z,26.10
2019-06-01T18:12:59.617Z,26.10
2019-06-01T18:15:04.060Z,26.10
2019-06-01T18:17:08.308Z,26.00
2019-06-01T18:19:12.575Z,26.00
2019-06-01T18:21:16.958Z,25.90
2019-06-01T18:23:21.118Z,25.90
2019-06-01T18:25:26.375Z,25.80
2019-06-01T18:29:34.304Z,25.80
2019-06-01T18:31:38.549Z,25.70
2019-06-01T18:33:42.799Z,25.70
2019-06-01T18:35:50.057Z,25.70
2019-06-01T18:37:54.340Z,25.60
2019-06-01T18:39:58.505Z,25.60
2019-06-01T18:42:03.740Z,25.50
2019-06-01T18:44:08.082Z,25.50
2019-06-01T18:46:14.418Z,25.40
2019-06-01T18:48:20.725Z,25.40
2019-06-01T18:50:25.018Z,25.40
2019-06-01T18:52:29.332Z,25.30
2019-06-01T18:54:33.504Z,25.30
2019-06-01T18:56:37.687Z,25.30
2019-06-01T18:58:41.864Z,25.30
2019-06-01T19:00:46.103Z,25.20
2019-06-01T19:02:50.269Z,25.20
2019-06-01T19:04:54.465Z,25.20
2019-06-01T19:06:58.653Z,25.10
2019-06-01T19:09:03.133Z,25.00
2019-06-01T19:11:08.369Z,25.00
2019-06-01T19:13:13.888Z,25.00
2019-06-01T19:15:27.853Z,24.90
2019-06-01T19:17:24.698Z,24.90
2019-06-01T19:19:28.978Z,24.80
2019-06-01T19:21:33.348Z,24.80
2019-06-01T19:23:37.641Z,24.70
2019-06-01T19:25:42.608Z,24.60
2019-06-01T19:27:46.811Z,24.60
2019-06-01T19:29:50.993Z,24.50
2019-06-01T19:31:55.527Z,24.50
2019-06-01T19:33:59.929Z,24.40
2019-06-01T19:36:04.745Z,24.40
2019-06-01T19:38:09.309Z,24.40
2019-06-01T19:40:15.546Z,24.40
2019-06-01T19:42:19.972Z,24.30
2019-06-01T19:44:24.183Z,24.20
2019-06-01T19:46:28.372Z,24.20
2019-06-01T19:48:32.704Z,24.20
2019-06-01T19:50:37.002Z,24.10
2019-06-01T19:52:41.415Z,24.00
2019-06-01T19:54:45.658Z,23.90
2019-06-01T19:56:49.943Z,23.90
2019-06-01T19:58:54.163Z,23.90
2019-06-01T20:00:58.542Z,23.80
2019-06-01T20:03:02.854Z,23.70
2019-06-01T20:05:07.180Z,23.70
2019-06-01T20:07:11.544Z,23.60
2019-06-01T20:09:17.061Z,23.70
2019-06-01T20:11:21.524Z,23.60
2019-06-01T20:13:25.756Z,23.50
2019-06-01T20:15:30.359Z,23.40
2019-06-01T20:17:34.595Z,23.40
2019-06-01T20:19:38.978Z,23.40
2019-06-01T20:21:43.198Z,23.50
2019-06-01T20:23:47.568Z,23.40
2019-06-01T20:25:51.910Z,23.40
2019-06-01T20:27:56.224Z,23.30
2019-06-01T20:30:00.468Z,23.30
2019-06-01T20:32:04.767Z,23.20
2019-06-01T20:34:09.112Z,23.20
2019-06-01T20:36:14.011Z,23.00
2019-06-01T20:38:18.783Z,23.00
2019-06-01T20:40:23.182Z,23.10
2019-06-01T20:42:32.413Z,23.00
2019-06-01T20:44:33.486Z,22.90
2019-06-01T20:46:37.826Z,22.90
2019-06-01T20:48:43.638Z,22.90
2019-06-01T20:50:47.945Z,22.90
2019-06-01T20:52:52.195Z,22.90
2019-06-01T20:54:56.548Z,22.80
2019-06-01T20:57:00.871Z,22.80
2019-06-01T20:59:05.515Z,22.70
2019-06-01T21:01:09.756Z,22.60
2019-06-01T21:03:13.954Z,22.60
2019-06-01T21:05:18.148Z,22.60
2019-06-01T21:07:22.441Z,22.60
2019-06-01T21:09:26.677Z,22.60
2019-06-01T21:11:30.992Z,22.60
2019-06-01T21:13:35.759Z,22.40
2019-06-01T21:15:40.010Z,22.30
2019-06-01T21:17:44.365Z,22.30
2019-06-01T21:19:48.572Z,22.30
2019-06-01T21:21:52.791Z,22.30
2019-06-01T21:23:56.962Z,22.30
2019-06-01T21:26:01.193Z,22.30
2019-06-01T21:28:05.723Z,22.30
2019-06-01T21:30:10.423Z,22.20
2019-06-01T21:32:17.324Z,22.20
2019-06-01T21:34:22.619Z,22.20
2019-06-01T21:36:27.585Z,22.20
2019-06-01T21:38:31.770Z,22.20
2019-06-01T21:40:35.941Z,22.10
2019-06-01T21:42:40.661Z,22.10
2019-06-01T21:44:45.035Z,22.00
2019-06-01T21:46:49.262Z,22.00
2019-06-01T21:48:53.521Z,22.00
2019-06-01T21:50:57.720Z,22.00
2019-06-01T21:53:01.884Z,21.90
2019-06-01T21:55:06.272Z,21.90
2019-06-01T21:57:10.467Z,21.90
2019-06-01T21:59:14.659Z,21.90
2019-06-01T22:01:18.819Z,21.90
2019-06-01T22:03:23.231Z,21.90
2019-06-01T22:05:27.562Z,21.90
2019-06-01T22:07:31.740Z,21.90
2019-06-01T22:09:35.940Z,21.80
2019-06-01T22:11:40.136Z,21.80
2019-06-01T22:13:44.325Z,21.90
2019-06-01T22:15:48.764Z,21.90
2019-06-01T22:17:52.998Z,21.90
2019-06-01T22:19:57.426Z,21.90
2019-06-01T22:22:03.771Z,21.90
2019-06-01T22:24:07.960Z,21.90
2019-06-01T22:26:12.149Z,21.90
2019-06-01T22:28:16.402Z,21.90
2019-06-01T22:30:20.675Z,21.90
2019-06-01T22:32:28.248Z,21.90
2019-06-01T22:34:30.772Z,21.90
2019-06-01T22:36:35.062Z,21.90
2019-06-01T22:38:39.219Z,21.90
2019-06-01T22:40:43.411Z,21.90
2019-06-01T22:42:47.600Z,22.00
2019-06-01T22:44:51.828Z,22.00
2019-06-01T22:46:56.007Z,22.00
2019-06-01T22:49:00.183Z,22.00
2019-06-01T22:51:04.549Z,21.90
2019-06-01T22:53:08.722Z,21.90
2019-06-01T22:55:13.007Z,21.90
2019-06-01T22:57:17.198Z,21.80
2019-06-01T22:59:22.436Z,21.80
2019-06-01T23:01:26.969Z,21.90
2019-06-01T23:03:32.147Z,21.80
2019-06-01T23:05:36.501Z,21.80
2019-06-01T23:07:40.775Z,21.80
2019-06-01T23:09:44.944Z,21.80
2019-06-01T23:11:49.133Z,21.80
2019-06-01T23:13:54.009Z,21.80
2019-06-01T23:15:58.370Z,21.70
2019-06-01T23:18:02.601Z,21.70
2019-06-01T23:20:07.179Z,21.60
2019-06-01T23:22:11.338Z,21.60
2019-06-01T23:24:15.606Z,21.60
2019-06-01T23:26:19.786Z,21.60
2019-06-01T23:28:24.457Z,21.60
2019-06-01T23:30:28.645Z,21.50
2019-06-01T23:32:32.817Z,21.40
2019-06-01T23:34:37.032Z,21.40
2019-06-01T23:36:41.187Z,21.40
2019-06-01T23:38:45.346Z,21.40
2019-06-01T23:40:49.537Z,21.40
2019-06-01T23:42:53.778Z,21.40
2019-06-01T23:44:57.938Z,21.40
2019-06-01T23:47:02.192Z,21.40
2019-06-01T23:49:06.367Z,21.40
2019-06-01T23:51:12.016Z,21.30
2019-06-01T23:53:16.662Z,21.30
2019-06-01T23:55:20.832Z,21.20
2019-06-01T23:57:25.680Z,21.20
2019-06-01T23:59:30.899Z,21.30
